首页
METAR-TAF:

METAR-TAF

机场 :

约翰·卡尔·芒罗哈密尔顿国际机场

哈密尔顿, 安大略省, 加拿大

纬度: 43-10N, 经度: 079-56W, 海拔: 237米

当前天气观测

该预报发布于1小时和7分钟前的13:00 UTC
风速10节,风向东北
温度 0°C
湿度 100%
气压 1005 hPa
能見度: 14.5公里
多云层高于12000英尺
多云层高于22000英尺

METAR: CYHM 151300Z 05010KT 9SM BKN120 BKN220 00/M00 A2969 RMK AC6CI1 SLP065

时间: 09:07 (14:07 UTC)

预报

该预报发布于2小时和29分钟前的11:38 UTC
预报有效从15日的 12点(UTC)到 16日的 12点(UTC)
风速12节,风向东转东北
能見度: 10公里
多云层高于14000英尺
从 15日的 2100点(UTC)
风速12节,风向东转东南
能見度: 10公里
阴天层高于4000英尺
小雨
短暂存在
从 15日的 21点(UTC)到 15日的 24点(UTC)
能見度: 6.4公里
阴天层高于1500英尺
小雨, 轻雾
从 16日的 0000点(UTC)
风速12节,风向东转东南
能見度: 3.2公里
阴天层高于500英尺
小雨, 轻雾
成为
从 16日的 01点(UTC)到 16日的 03点(UTC)
风速12节,风向西南
从 16日的 0300点(UTC)
风速12节,风向西南
能見度: 8.0公里
阴天层高于500英尺
小雪, 雨, 轻雾
从 16日的 0500点(UTC)
风速12节,风向西转西南
能見度: 10公里
多云层高于800英尺

TAF: CYHM 151138Z 1512/1612 06012KT P6SM BKN140 FM152100 11012KT P6SM -RA OVC040 TEMPO 1521/1524 4SM -RA BR OVC015 FM160000 11012KT 2SM -RA BR OVC005 BECMG 1601/1603 22012KT FM160300 22012KT 5SM -SNRA BR OVC005 FM160500 24012KT P6SM BKN008 RMK NXT FCST BY 151800Z

超过4000个机场的气象观测和天气预报(METAR&TAF报告)。

可查询的气象台以黄色和红色小点在地图上表示。

将鼠标移到小点上方,可查看气象台名称。

然后点击查看天气观测和预报。

如需切换地图:点击带黑十字的绿色按钮放大地图;点击带横线的绿色按钮缩小地图;或者点击绿色箭头查看邻近地区的地图。


METAR-TAF: